sensor_id;sensor_type;location;lat;lon;timestamp;temperature;humidity
46139;DHT22;32398;49.112;8.598;2023-12-04T00:00:21;-1.80;99.90
46139;DHT22;32398;49.112;8.598;2023-12-04T00:02:47;-1.80;99.90
46139;DHT22;32398;49.112;8.598;2023-12-04T00:05:15;-1.80;99.90
46139;DHT22;32398;49.112;8.598;2023-12-04T00:07:42;-1.80;99.90
46139;DHT22;32398;49.112;8.598;2023-12-04T00:10:08;-1.80;99.90
46139;DHT22;32398;49.112;8.598;2023-12-04T00:12:35;-1.80;99.90
46139;DHT22;32398;49.112;8.598;2023-12-04T00:15:02;-1.80;99.90
46139;DHT22;32398;49.112;8.598;2023-12-04T00:17:28;-1.80;99.90
46139;DHT22;32398;49.112;8.598;2023-12-04T00:19:55;-1.90;99.90
46139;DHT22;32398;49.112;8.598;2023-12-04T00:22:23;-1.90;99.90
46139;DHT22;32398;49.112;8.598;2023-12-04T00:24:50;-1.80;99.90
46139;DHT22;32398;49.112;8.598;2023-12-04T00:27:16;-1.90;99.90
46139;DHT22;32398;49.112;8.598;2023-12-04T00:29:43;-1.90;99.90
46139;DHT22;32398;49.112;8.598;2023-12-04T00:32:09;-1.90;99.90
46139;DHT22;32398;49.112;8.598;2023-12-04T00:34:36;-1.90;99.90
46139;DHT22;32398;49.112;8.598;2023-12-04T00:37:02;-1.90;99.90
46139;DHT22;32398;49.112;8.598;2023-12-04T00:39:30;-1.90;99.90
46139;DHT22;32398;49.112;8.598;2023-12-04T00:41:57;-1.90;99.90
46139;DHT22;32398;49.112;8.598;2023-12-04T00:44:23;-1.90;99.90
46139;DHT22;32398;49.112;8.598;2023-12-04T00:46:50;-1.90;99.90
46139;DHT22;32398;49.112;8.598;2023-12-04T00:49:16;-1.90;99.90
46139;DHT22;32398;49.112;8.598;2023-12-04T00:51:43;-1.90;99.90
46139;DHT22;32398;49.112;8.598;2023-12-04T00:54:10;-1.90;99.90
46139;DHT22;32398;49.112;8.598;2023-12-04T00:56:39;-1.90;99.90
46139;DHT22;32398;49.112;8.598;2023-12-04T00:59:05;-1.90;99.90
46139;DHT22;32398;49.112;8.598;2023-12-04T01:01:32;-1.90;99.90
46139;DHT22;32398;49.112;8.598;2023-12-04T01:03:59;-2.00;99.90
46139;DHT22;32398;49.112;8.598;2023-12-04T01:06:25;-2.00;99.90
46139;DHT22;32398;49.112;8.598;2023-12-04T01:08:53;-2.00;99.90
46139;DHT22;32398;49.112;8.598;2023-12-04T01:11:19;-2.00;99.90
46139;DHT22;32398;49.112;8.598;2023-12-04T01:13:48;-2.00;99.90
46139;DHT22;32398;49.112;8.598;2023-12-04T01:16:15;-2.00;99.90
46139;DHT22;32398;49.112;8.598;2023-12-04T01:18:42;-2.00;99.90
46139;DHT22;32398;49.112;8.598;2023-12-04T01:21:08;-2.00;99.90
46139;DHT22;32398;49.112;8.598;2023-12-04T01:23:35;-2.00;99.90
46139;DHT22;32398;49.112;8.598;2023-12-04T01:26:02;-2.00;99.90
46139;DHT22;32398;49.112;8.598;2023-12-04T01:28:28;-2.00;99.90
46139;DHT22;32398;49.112;8.598;2023-12-04T01:30:56;-2.00;99.90
46139;DHT22;32398;49.112;8.598;2023-12-04T01:33:23;-2.00;99.90
46139;DHT22;32398;49.112;8.598;2023-12-04T01:35:49;-2.00;99.90
46139;DHT22;32398;49.112;8.598;2023-12-04T01:38:16;-2.00;99.90
46139;DHT22;32398;49.112;8.598;2023-12-04T01:40:42;-2.00;99.90
46139;DHT22;32398;49.112;8.598;2023-12-04T01:43:09;-2.10;99.90
46139;DHT22;32398;49.112;8.598;2023-12-04T01:45:35;-2.10;99.90
46139;DHT22;32398;49.112;8.598;2023-12-04T01:48:04;-2.10;99.90
46139;DHT22;32398;49.112;8.598;2023-12-04T01:50:32;-2.10;99.90
46139;DHT22;32398;49.112;8.598;2023-12-04T01:52:59;-2.10;99.90
46139;DHT22;32398;49.112;8.598;2023-12-04T01:55:25;-2.10;99.90
46139;DHT22;32398;49.112;8.598;2023-12-04T01:57:52;-2.10;99.90
46139;DHT22;32398;49.112;8.598;2023-12-04T02:00:21;-2.10;99.90
46139;DHT22;32398;49.112;8.598;2023-12-04T02:02:47;-2.10;99.90
46139;DHT22;32398;49.112;8.598;2023-12-04T02:05:15;-2.10;99.90
46139;DHT22;32398;49.112;8.598;2023-12-04T02:07:42;-2.10;99.90
46139;DHT22;32398;49.112;8.598;2023-12-04T02:10:09;-2.10;99.90
46139;DHT22;32398;49.112;8.598;2023-12-04T02:12:36;-2.10;99.90
46139;DHT22;32398;49.112;8.598;2023-12-04T02:15:03;-2.10;99.90
46139;DHT22;32398;49.112;8.598;2023-12-04T02:17:29;-2.10;99.90
46139;DHT22;32398;49.112;8.598;2023-12-04T02:19:56;-2.10;99.90
46139;DHT22;32398;49.112;8.598;2023-12-04T02:22:24;-2.10;99.90
46139;DHT22;32398;49.112;8.598;2023-12-04T02:24:52;-2.10;99.90
46139;DHT22;32398;49.112;8.598;2023-12-04T02:27:25;-2.20;99.90
46139;DHT22;32398;49.112;8.598;2023-12-04T02:29:53;-2.10;99.90
46139;DHT22;32398;49.112;8.598;2023-12-04T02:32:20;-2.10;99.90
46139;DHT22;32398;49.112;8.598;2023-12-04T02:34:47;-2.20;99.90
46139;DHT22;32398;49.112;8.598;2023-12-04T02:37:15;-2.20;99.90
46139;DHT22;32398;49.112;8.598;2023-12-04T02:39:43;-2.20;99.90
46139;DHT22;32398;49.112;8.598;2023-12-04T02:42:11;-2.20;99.90
46139;DHT22;32398;49.112;8.598;2023-12-04T02:44:39;-2.20;99.90
46139;DHT22;32398;49.112;8.598;2023-12-04T02:47:05;-2.20;99.90
46139;DHT22;32398;49.112;8.598;2023-12-04T02:49:32;-2.20;99.90
46139;DHT22;32398;49.112;8.598;2023-12-04T02:51:58;-2.20;99.90
46139;DHT22;32398;49.112;8.598;2023-12-04T02:54:25;-2.20;99.90
46139;DHT22;32398;49.112;8.598;2023-12-04T02:56:51;-2.20;99.90
46139;DHT22;32398;49.112;8.598;2023-12-04T02:59:19;-2.20;99.90
46139;DHT22;32398;49.112;8.598;2023-12-04T03:01:46;-2.20;99.90
46139;DHT22;32398;49.112;8.598;2023-12-04T03:04:13;-2.20;99.90
46139;DHT22;32398;49.112;8.598;2023-12-04T03:06:39;-2.20;99.90
46139;DHT22;32398;49.112;8.598;2023-12-04T03:09:06;-2.20;99.90
46139;DHT22;32398;49.112;8.598;2023-12-04T03:11:32;-2.30;99.90
46139;DHT22;32398;49.112;8.598;2023-12-04T03:13:59;-2.20;99.90
46139;DHT22;32398;49.112;8.598;2023-12-04T03:16:27;-2.30;99.90
46139;DHT22;32398;49.112;8.598;2023-12-04T03:18:54;-2.30;99.90
46139;DHT22;32398;49.112;8.598;2023-12-04T03:21:20;-2.30;99.90
46139;DHT22;32398;49.112;8.598;2023-12-04T03:23:47;-2.30;99.90
46139;DHT22;32398;49.112;8.598;2023-12-04T03:26:13;-2.30;99.90
46139;DHT22;32398;49.112;8.598;2023-12-04T03:28:40;-2.30;99.90
46139;DHT22;32398;49.112;8.598;2023-12-04T03:31:06;-2.30;99.90
46139;DHT22;32398;49.112;8.598;2023-12-04T03:33:34;-2.30;99.90
46139;DHT22;32398;49.112;8.598;2023-12-04T03:36:01;-2.30;99.90
46139;DHT22;32398;49.112;8.598;2023-12-04T03:38:27;-2.30;99.90
46139;DHT22;32398;49.112;8.598;2023-12-04T03:40:54;-2.30;99.90
46139;DHT22;32398;49.112;8.598;2023-12-04T03:43:21;-2.30;99.90
46139;DHT22;32398;49.112;8.598;2023-12-04T03:45:47;-2.30;99.90
46139;DHT22;32398;49.112;8.598;2023-12-04T03:48:14;-2.30;99.90
46139;DHT22;32398;49.112;8.598;2023-12-04T03:50:40;-2.30;99.90
46139;DHT22;32398;49.112;8.598;2023-12-04T03:53:07;-2.30;99.90
46139;DHT22;32398;49.112;8.598;2023-12-04T03:55:34;-2.30;99.90
46139;DHT22;32398;49.112;8.598;2023-12-04T03:58:00;-2.30;99.90
46139;DHT22;32398;49.112;8.598;2023-12-04T04:00:27;-2.30;99.90
46139;DHT22;32398;49.112;8.598;2023-12-04T04:02:53;-2.30;99.90
46139;DHT22;32398;49.112;8.598;2023-12-04T04:05:20;-2.30;99.90
46139;DHT22;32398;49.112;8.598;2023-12-04T04:07:48;-2.30;99.90
46139;DHT22;32398;49.112;8.598;2023-12-04T04:10:14;-2.30;99.90
46139;DHT22;32398;49.112;8.598;2023-12-04T04:12:41;-2.30;99.90
46139;DHT22;32398;49.112;8.598;2023-12-04T04:15:07;-2.30;99.90
46139;DHT22;32398;49.112;8.598;2023-12-04T04:17:34;-2.30;99.90
46139;DHT22;32398;49.112;8.598;2023-12-04T04:20:01;-2.30;99.90
46139;DHT22;32398;49.112;8.598;2023-12-04T04:22:28;-2.30;99.90
46139;DHT22;32398;49.112;8.598;2023-12-04T04:24:56;-2.30;99.90
46139;DHT22;32398;49.112;8.598;2023-12-04T04:27:22;-2.30;99.90
46139;DHT22;32398;49.112;8.598;2023-12-04T04:29:49;-2.30;99.90
46139;DHT22;32398;49.112;8.598;2023-12-04T04:32:15;-2.30;99.90
46139;DHT22;32398;49.112;8.598;2023-12-04T04:34:42;-2.30;99.90
46139;DHT22;32398;49.112;8.598;2023-12-04T04:37:08;-2.30;99.90
46139;DHT22;32398;49.112;8.598;2023-12-04T04:39:35;-2.30;99.90
46139;DHT22;32398;49.112;8.598;2023-12-04T04:42:03;-2.30;99.90
46139;DHT22;32398;49.112;8.598;2023-12-04T04:44:30;-2.30;99.90
46139;DHT22;32398;49.112;8.598;2023-12-04T04:46:56;-2.30;99.90
46139;DHT22;32398;49.112;8.598;2023-12-04T04:49:23;-2.30;99.90
46139;DHT22;32398;49.112;8.598;2023-12-04T04:51:49;-2.30;99.90
46139;DHT22;32398;49.112;8.598;2023-12-04T04:54:16;-2.30;99.90
46139;DHT22;32398;49.112;8.598;2023-12-04T04:56:42;-2.30;99.90
46139;DHT22;32398;49.112;8.598;2023-12-04T04:59:10;-2.30;99.90
46139;DHT22;32398;49.112;8.598;2023-12-04T05:01:37;-2.30;99.90
46139;DHT22;32398;49.112;8.598;2023-12-04T05:04:03;-2.30;99.90
46139;DHT22;32398;49.112;8.598;2023-12-04T05:06:30;-2.30;99.90
46139;DHT22;32398;49.112;8.598;2023-12-04T05:08:56;-2.30;99.90
46139;DHT22;32398;49.112;8.598;2023-12-04T05:11:23;-2.30;99.90
46139;DHT22;32398;49.112;8.598;2023-12-04T05:13:50;-2.30;99.90
46139;DHT22;32398;49.112;8.598;2023-12-04T05:16:17;-2.30;99.90
46139;DHT22;32398;49.112;8.598;2023-12-04T05:18:44;-2.30;99.90
46139;DHT22;32398;49.112;8.598;2023-12-04T05:21:11;-2.30;99.90
46139;DHT22;32398;49.112;8.598;2023-12-04T05:23:37;-2.30;99.90
46139;DHT22;32398;49.112;8.598;2023-12-04T05:26:04;-2.20;99.90
46139;DHT22;32398;49.112;8.598;2023-12-04T05:28:31;-2.20;99.90
46139;DHT22;32398;49.112;8.598;2023-12-04T05:30:57;-2.30;99.90
46139;DHT22;32398;49.112;8.598;2023-12-04T05:33:25;-2.30;99.90
46139;DHT22;32398;49.112;8.598;2023-12-04T05:35:52;-2.20;99.90
46139;DHT22;32398;49.112;8.598;2023-12-04T05:38:19;-2.20;99.90
46139;DHT22;32398;49.112;8.598;2023-12-04T05:40:46;-2.20;99.90
46139;DHT22;32398;49.112;8.598;2023-12-04T05:43:13;-2.20;99.90
46139;DHT22;32398;49.112;8.598;2023-12-04T05:45:40;-2.20;99.90
46139;DHT22;32398;49.112;8.598;2023-12-04T05:48:07;-2.20;99.90
46139;DHT22;32398;49.112;8.598;2023-12-04T05:50:34;-2.20;99.90
46139;DHT22;32398;49.112;8.598;2023-12-04T05:53:01;-2.20;99.90
46139;DHT22;32398;49.112;8.598;2023-12-04T05:55:27;-2.20;99.90
46139;DHT22;32398;49.112;8.598;2023-12-04T05:57:54;-2.20;99.90
46139;DHT22;32398;49.112;8.598;2023-12-04T06:00:21;-2.20;99.90
46139;DHT22;32398;49.112;8.598;2023-12-04T06:02:47;-2.20;99.90
46139;DHT22;32398;49.112;8.598;2023-12-04T06:05:14;-2.30;99.90
46139;DHT22;32398;49.112;8.598;2023-12-04T06:07:42;-2.20;99.90
46139;DHT22;32398;49.112;8.598;2023-12-04T06:10:08;-2.20;99.90
46139;DHT22;32398;49.112;8.598;2023-12-04T06:12:35;-2.20;99.90
46139;DHT22;32398;49.112;8.598;2023-12-04T06:15:02;-2.20;99.90
46139;DHT22;32398;49.112;8.598;2023-12-04T06:17:27;-2.20;99.90
46139;DHT22;32398;49.112;8.598;2023-12-04T06:19:54;-2.20;99.90
46139;DHT22;32398;49.112;8.598;2023-12-04T06:22:21;-2.20;99.90
46139;DHT22;32398;49.112;8.598;2023-12-04T06:24:49;-2.20;99.90
46139;DHT22;32398;49.112;8.598;2023-12-04T06:27:17;-2.20;99.90
46139;DHT22;32398;49.112;8.598;2023-12-04T06:29:44;-2.20;99.90
46139;DHT22;32398;49.112;8.598;2023-12-04T06:32:11;-2.20;99.90
46139;DHT22;32398;49.112;8.598;2023-12-04T06:34:38;-2.20;99.90
46139;DHT22;32398;49.112;8.598;2023-12-04T06:37:06;-2.20;99.90
46139;DHT22;32398;49.112;8.598;2023-12-04T06:39:34;-2.20;99.90
46139;DHT22;32398;49.112;8.598;2023-12-04T06:42:05;-2.20;99.90
46139;DHT22;32398;49.112;8.598;2023-12-04T06:44:31;-2.10;99.90
46139;DHT22;32398;49.112;8.598;2023-12-04T06:46:58;-2.10;99.90
46139;DHT22;32398;49.112;8.598;2023-12-04T06:49:26;-2.10;99.90
46139;DHT22;32398;49.112;8.598;2023-12-04T06:51:55;-2.10;99.90
46139;DHT22;32398;49.112;8.598;2023-12-04T06:54:21;-2.20;99.90
46139;DHT22;32398;49.112;8.598;2023-12-04T06:56:48;-2.10;99.90
46139;DHT22;32398;49.112;8.598;2023-12-04T06:59:16;-2.10;99.90
46139;DHT22;32398;49.112;8.598;2023-12-04T07:01:43;-2.20;99.90
46139;DHT22;32398;49.112;8.598;2023-12-04T07:04:10;-2.10;99.90
46139;DHT22;32398;49.112;8.598;2023-12-04T07:06:37;-2.10;99.90
46139;DHT22;32398;49.112;8.598;2023-12-04T07:09:03;-2.10;99.90
46139;DHT22;32398;49.112;8.598;2023-12-04T07:11:30;-2.20;99.90
46139;DHT22;32398;49.112;8.598;2023-12-04T07:13:57;-2.10;99.90
46139;DHT22;32398;49.112;8.598;2023-12-04T07:16:25;-2.10;99.90
46139;DHT22;32398;49.112;8.598;2023-12-04T07:18:51;-2.10;99.90
46139;DHT22;32398;49.112;8.598;2023-12-04T07:21:18;-2.10;99.90
46139;DHT22;32398;49.112;8.598;2023-12-04T07:23:44;-2.10;99.90
46139;DHT22;32398;49.112;8.598;2023-12-04T07:26:11;-2.10;99.90
46139;DHT22;32398;49.112;8.598;2023-12-04T07:28:37;-2.10;99.90
46139;DHT22;32398;49.112;8.598;2023-12-04T07:31:04;-2.10;99.90
46139;DHT22;32398;49.112;8.598;2023-12-04T07:33:32;-2.10;99.90
46139;DHT22;32398;49.112;8.598;2023-12-04T07:36:00;-2.10;99.90
46139;DHT22;32398;49.112;8.598;2023-12-04T07:38:27;-2.10;99.90
46139;DHT22;32398;49.112;8.598;2023-12-04T07:40:53;-2.00;99.90
46139;DHT22;32398;49.112;8.598;2023-12-04T07:43:20;-2.10;99.90
46139;DHT22;32398;49.112;8.598;2023-12-04T07:45:46;-2.00;99.90
46139;DHT22;32398;49.112;8.598;2023-12-04T07:48:13;-2.00;99.90
46139;DHT22;32398;49.112;8.598;2023-12-04T07:50:41;-2.00;99.90
46139;DHT22;32398;49.112;8.598;2023-12-04T07:53:07;-1.90;99.90
46139;DHT22;32398;49.112;8.598;2023-12-04T07:55:35;-1.90;99.90
46139;DHT22;32398;49.112;8.598;2023-12-04T07:58:01;-1.90;99.90
46139;DHT22;32398;49.112;8.598;2023-12-04T08:00:28;-1.90;99.90
46139;DHT22;32398;49.112;8.598;2023-12-04T08:02:54;-1.90;99.90
46139;DHT22;32398;49.112;8.598;2023-12-04T08:05:21;-1.90;99.90
46139;DHT22;32398;49.112;8.598;2023-12-04T08:07:49;-1.90;99.90
46139;DHT22;32398;49.112;8.598;2023-12-04T08:10:15;-1.90;99.90
46139;DHT22;32398;49.112;8.598;2023-12-04T08:12:44;-1.90;99.90
46139;DHT22;32398;49.112;8.598;2023-12-04T08:15:10;-1.80;99.90
46139;DHT22;32398;49.112;8.598;2023-12-04T08:17:37;-1.80;99.90
46139;DHT22;32398;49.112;8.598;2023-12-04T08:20:04;-1.70;99.90
46139;DHT22;32398;49.112;8.598;2023-12-04T08:22:31;-1.60;99.90
46139;DHT22;32398;49.112;8.598;2023-12-04T08:24:59;-1.60;99.90
46139;DHT22;32398;49.112;8.598;2023-12-04T08:27:26;-1.50;99.90
46139;DHT22;32398;49.112;8.598;2023-12-04T08:29:52;-1.50;99.90
46139;DHT22;32398;49.112;8.598;2023-12-04T08:32:19;-1.40;99.90
46139;DHT22;32398;49.112;8.598;2023-12-04T08:34:46;-1.30;99.90
46139;DHT22;32398;49.112;8.598;2023-12-04T08:37:13;-1.30;99.90
46139;DHT22;32398;49.112;8.598;2023-12-04T08:39:39;-1.20;99.90
46139;DHT22;32398;49.112;8.598;2023-12-04T08:42:07;-1.20;99.90
46139;DHT22;32398;49.112;8.598;2023-12-04T08:44:34;-1.10;99.90
46139;DHT22;32398;49.112;8.598;2023-12-04T08:47:00;-1.10;99.90
46139;DHT22;32398;49.112;8.598;2023-12-04T08:49:27;-1.10;99.90
46139;DHT22;32398;49.112;8.598;2023-12-04T08:51:53;-1.00;99.90
46139;DHT22;32398;49.112;8.598;2023-12-04T08:54:20;-1.00;99.90
46139;DHT22;32398;49.112;8.598;2023-12-04T08:56:46;-0.90;99.90
46139;DHT22;32398;49.112;8.598;2023-12-04T08:59:14;-0.90;99.90
46139;DHT22;32398;49.112;8.598;2023-12-04T09:01:42;-0.90;99.90
46139;DHT22;32398;49.112;8.598;2023-12-04T09:04:08;-0.90;99.90
46139;DHT22;32398;49.112;8.598;2023-12-04T09:06:35;-0.90;99.90
46139;DHT22;32398;49.112;8.598;2023-12-04T09:09:02;-0.80;99.90
46139;DHT22;32398;49.112;8.598;2023-12-04T09:11:29;-0.80;99.90
46139;DHT22;32398;49.112;8.598;2023-12-04T09:13:55;-0.80;99.90
46139;DHT22;32398;49.112;8.598;2023-12-04T09:16:23;-0.80;99.90
46139;DHT22;32398;49.112;8.598;2023-12-04T09:18:50;-0.70;99.90
46139;DHT22;32398;49.112;8.598;2023-12-04T09:21:18;-0.70;99.90
46139;DHT22;32398;49.112;8.598;2023-12-04T09:23:45;-0.70;99.90
46139;DHT22;32398;49.112;8.598;2023-12-04T09:26:15;-0.70;99.90
46139;DHT22;32398;49.112;8.598;2023-12-04T09:28:41;-0.70;99.90
46139;DHT22;32398;49.112;8.598;2023-12-04T09:31:08;-0.60;99.90
46139;DHT22;32398;49.112;8.598;2023-12-04T09:33:36;-0.70;99.90
46139;DHT22;32398;49.112;8.598;2023-12-04T09:36:03;-0.60;99.90
46139;DHT22;32398;49.112;8.598;2023-12-04T09:38:29;-0.60;99.90
46139;DHT22;32398;49.112;8.598;2023-12-04T09:40:57;-0.60;99.90
46139;DHT22;32398;49.112;8.598;2023-12-04T09:43:25;-0.60;99.90
46139;DHT22;32398;49.112;8.598;2023-12-04T09:45:52;-0.60;99.90
46139;DHT22;32398;49.112;8.598;2023-12-04T09:48:19;-0.60;99.90
46139;DHT22;32398;49.112;8.598;2023-12-04T09:50:47;-0.60;99.90
46139;DHT22;32398;49.112;8.598;2023-12-04T09:53:14;-0.60;99.90
46139;DHT22;32398;49.112;8.598;2023-12-04T09:55:40;-0.50;99.90
46139;DHT22;32398;49.112;8.598;2023-12-04T09:58:07;-0.50;99.90
46139;DHT22;32398;49.112;8.598;2023-12-04T10:00:35;-0.50;99.90
46139;DHT22;32398;49.112;8.598;2023-12-04T10:03:01;-0.50;99.90
46139;DHT22;32398;49.112;8.598;2023-12-04T10:05:29;-0.50;99.90
46139;DHT22;32398;49.112;8.598;2023-12-04T10:07:57;-0.50;99.90
46139;DHT22;32398;49.112;8.598;2023-12-04T10:10:23;-0.50;99.90
46139;DHT22;32398;49.112;8.598;2023-12-04T10:12:50;-0.50;99.90
46139;DHT22;32398;49.112;8.598;2023-12-04T10:15:17;-0.40;99.90
46139;DHT22;32398;49.112;8.598;2023-12-04T10:17:43;-0.40;99.90
46139;DHT22;32398;49.112;8.598;2023-12-04T10:20:11;-0.40;99.90
46139;DHT22;32398;49.112;8.598;2023-12-04T10:22:52;-0.40;99.90
46139;DHT22;32398;49.112;8.598;2023-12-04T10:25:20;-0.40;99.90
46139;DHT22;32398;49.112;8.598;2023-12-04T10:27:47;-0.40;99.90
46139;DHT22;32398;49.112;8.598;2023-12-04T10:30:24;-0.40;99.90
46139;DHT22;32398;49.112;8.598;2023-12-04T10:32:53;-0.40;99.90
46139;DHT22;32398;49.112;8.598;2023-12-04T10:35:20;-0.40;99.90
46139;DHT22;32398;49.112;8.598;2023-12-04T10:37:48;-0.40;99.90
46139;DHT22;32398;49.112;8.598;2023-12-04T10:40:23;-0.30;99.90
46139;DHT22;32398;49.112;8.598;2023-12-04T10:42:49;-0.30;99.90
46139;DHT22;32398;49.112;8.598;2023-12-04T10:45:16;-0.30;99.90
46139;DHT22;32398;49.112;8.598;2023-12-04T10:47:46;-0.30;99.90
46139;DHT22;32398;49.112;8.598;2023-12-04T10:50:13;-0.30;99.90
46139;DHT22;32398;49.112;8.598;2023-12-04T10:52:40;-0.30;99.90
46139;DHT22;32398;49.112;8.598;2023-12-04T10:55:07;-0.30;99.90
46139;DHT22;32398;49.112;8.598;2023-12-04T10:57:36;-0.30;99.90
46139;DHT22;32398;49.112;8.598;2023-12-04T11:00:04;-0.20;99.90
46139;DHT22;32398;49.112;8.598;2023-12-04T11:02:32;-0.20;99.90
46139;DHT22;32398;49.112;8.598;2023-12-04T11:05:01;-0.20;99.90
46139;DHT22;32398;49.112;8.598;2023-12-04T11:07:33;-0.20;99.90
46139;DHT22;32398;49.112;8.598;2023-12-04T11:10:01;-0.20;99.90
46139;DHT22;32398;49.112;8.598;2023-12-04T11:12:28;-0.20;99.90
46139;DHT22;32398;49.112;8.598;2023-12-04T11:14:58;-0.20;99.90
46139;DHT22;32398;49.112;8.598;2023-12-04T11:17:27;-0.20;99.90
46139;DHT22;32398;49.112;8.598;2023-12-04T11:19:58;-0.20;99.90
46139;DHT22;32398;49.112;8.598;2023-12-04T11:22:27;-0.20;99.90
46139;DHT22;32398;49.112;8.598;2023-12-04T11:24:53;-0.10;99.90
46139;DHT22;32398;49.112;8.598;2023-12-04T11:27:20;-0.10;99.90
46139;DHT22;32398;49.112;8.598;2023-12-04T11:29:47;-0.10;99.90
46139;DHT22;32398;49.112;8.598;2023-12-04T11:32:16;-0.10;99.90
46139;DHT22;32398;49.112;8.598;2023-12-04T11:34:49;-0.10;99.90
46139;DHT22;32398;49.112;8.598;2023-12-04T11:37:17;-0.10;99.90
46139;DHT22;32398;49.112;8.598;2023-12-04T11:39:45;-0.10;99.90
46139;DHT22;32398;49.112;8.598;2023-12-04T11:42:13;-0.10;99.90
46139;DHT22;32398;49.112;8.598;2023-12-04T11:44:40;0.00;99.90
46139;DHT22;32398;49.112;8.598;2023-12-04T11:47:07;0.00;99.90
46139;DHT22;32398;49.112;8.598;2023-12-04T11:49:35;0.00;99.90
46139;DHT22;32398;49.112;8.598;2023-12-04T11:52:03;0.00;99.90
46139;DHT22;32398;49.112;8.598;2023-12-04T11:54:36;0.00;99.90
46139;DHT22;32398;49.112;8.598;2023-12-04T11:57:21;0.00;99.90
46139;DHT22;32398;49.112;8.598;2023-12-04T11:59:49;0.00;99.90
46139;DHT22;32398;49.112;8.598;2023-12-04T12:02:16;0.00;99.90
46139;DHT22;32398;49.112;8.598;2023-12-04T12:04:44;0.00;99.90
46139;DHT22;32398;49.112;8.598;2023-12-04T12:07:11;0.00;99.90
46139;DHT22;32398;49.112;8.598;2023-12-04T12:09:37;0.00;99.90
46139;DHT22;32398;49.112;8.598;2023-12-04T12:12:04;0.10;99.90
46139;DHT22;32398;49.112;8.598;2023-12-04T12:14:31;0.10;99.90
46139;DHT22;32398;49.112;8.598;2023-12-04T12:16:58;0.10;99.90
46139;DHT22;32398;49.112;8.598;2023-12-04T12:19:25;0.10;99.90
46139;DHT22;32398;49.112;8.598;2023-12-04T12:21:54;0.10;99.90
46139;DHT22;32398;49.112;8.598;2023-12-04T12:24:20;0.10;99.90
46139;DHT22;32398;49.112;8.598;2023-12-04T12:26:47;0.10;99.90
46139;DHT22;32398;49.112;8.598;2023-12-04T12:29:13;0.10;99.90
46139;DHT22;32398;49.112;8.598;2023-12-04T12:31:40;0.10;99.90
46139;DHT22;32398;49.112;8.598;2023-12-04T12:34:06;0.10;99.90
46139;DHT22;32398;49.112;8.598;2023-12-04T12:36:33;0.20;99.90
46139;DHT22;32398;49.112;8.598;2023-12-04T12:39:01;0.20;99.90
46139;DHT22;32398;49.112;8.598;2023-12-04T12:41:29;0.20;99.90
46139;DHT22;32398;49.112;8.598;2023-12-04T12:43:55;0.20;99.90
46139;DHT22;32398;49.112;8.598;2023-12-04T12:46:22;0.20;99.90
46139;DHT22;32398;49.112;8.598;2023-12-04T12:48:48;0.20;99.90
46139;DHT22;32398;49.112;8.598;2023-12-04T12:51:15;0.20;99.90
46139;DHT22;32398;49.112;8.598;2023-12-04T12:53:43;0.20;99.90
46139;DHT22;32398;49.112;8.598;2023-12-04T12:56:11;0.30;99.90
46139;DHT22;32398;49.112;8.598;2023-12-04T12:58:38;0.30;99.90
46139;DHT22;32398;49.112;8.598;2023-12-04T13:01:04;0.30;99.90
46139;DHT22;32398;49.112;8.598;2023-12-04T13:03:31;0.30;99.90
46139;DHT22;32398;49.112;8.598;2023-12-04T13:05:57;0.30;99.90
46139;DHT22;32398;49.112;8.598;2023-12-04T13:08:24;0.30;99.90
46139;DHT22;32398;49.112;8.598;2023-12-04T13:10:50;0.30;99.90
46139;DHT22;32398;49.112;8.598;2023-12-04T13:13:19;0.30;99.90
46139;DHT22;32398;49.112;8.598;2023-12-04T13:15:46;0.30;99.90
46139;DHT22;32398;49.112;8.598;2023-12-04T13:18:12;0.40;99.90
46139;DHT22;32398;49.112;8.598;2023-12-04T13:20:39;0.30;99.90
46139;DHT22;32398;49.112;8.598;2023-12-04T13:23:05;0.40;99.90
46139;DHT22;32398;49.112;8.598;2023-12-04T13:25:32;0.40;99.90
46139;DHT22;32398;49.112;8.598;2023-12-04T13:27:59;0.40;99.90
46139;DHT22;32398;49.112;8.598;2023-12-04T13:30:26;0.40;99.90
46139;DHT22;32398;49.112;8.598;2023-12-04T13:32:53;0.40;99.90
46139;DHT22;32398;49.112;8.598;2023-12-04T13:35:20;0.40;99.90
46139;DHT22;32398;49.112;8.598;2023-12-04T13:37:46;0.40;99.90
46139;DHT22;32398;49.112;8.598;2023-12-04T13:40:20;0.40;99.90
46139;DHT22;32398;49.112;8.598;2023-12-04T13:42:46;0.40;99.90
46139;DHT22;32398;49.112;8.598;2023-12-04T13:45:31;0.40;99.90
46139;DHT22;32398;49.112;8.598;2023-12-04T13:48:00;0.50;99.90
46139;DHT22;32398;49.112;8.598;2023-12-04T13:50:27;0.50;99.90
46139;DHT22;32398;49.112;8.598;2023-12-04T13:52:53;0.50;99.90
46139;DHT22;32398;49.112;8.598;2023-12-04T13:55:23;0.50;99.90
46139;DHT22;32398;49.112;8.598;2023-12-04T13:58:02;0.50;99.90
46139;DHT22;32398;49.112;8.598;2023-12-04T14:00:37;0.50;99.90
46139;DHT22;32398;49.112;8.598;2023-12-04T14:03:03;0.50;99.90
46139;DHT22;32398;49.112;8.598;2023-12-04T14:05:30;0.50;99.90
46139;DHT22;32398;49.112;8.598;2023-12-04T14:07:56;0.50;99.90
46139;DHT22;32398;49.112;8.598;2023-12-04T14:10:24;0.50;99.90
46139;DHT22;32398;49.112;8.598;2023-12-04T14:12:51;0.50;99.90
46139;DHT22;32398;49.112;8.598;2023-12-04T14:15:18;0.60;99.90
46139;DHT22;32398;49.112;8.598;2023-12-04T14:17:46;0.60;99.90
46139;DHT22;32398;49.112;8.598;2023-12-04T14:20:13;0.60;99.90
46139;DHT22;32398;49.112;8.598;2023-12-04T14:22:42;0.60;99.90
46139;DHT22;32398;49.112;8.598;2023-12-04T14:25:09;0.60;99.90
46139;DHT22;32398;49.112;8.598;2023-12-04T14:27:36;0.60;99.90
46139;DHT22;32398;49.112;8.598;2023-12-04T14:30:05;0.60;99.90
46139;DHT22;32398;49.112;8.598;2023-12-04T14:32:33;0.60;99.90
46139;DHT22;32398;49.112;8.598;2023-12-04T14:35:01;0.60;99.90
46139;DHT22;32398;49.112;8.598;2023-12-04T14:37:28;0.60;99.90
46139;DHT22;32398;49.112;8.598;2023-12-04T14:39:55;0.60;99.90
46139;DHT22;32398;49.112;8.598;2023-12-04T14:42:22;0.60;99.90
46139;DHT22;32398;49.112;8.598;2023-12-04T14:44:48;0.60;99.90
46139;DHT22;32398;49.112;8.598;2023-12-04T14:47:15;0.70;99.90
46139;DHT22;32398;49.112;8.598;2023-12-04T14:49:41;0.70;99.90
46139;DHT22;32398;49.112;8.598;2023-12-04T14:52:09;0.70;99.90
46139;DHT22;32398;49.112;8.598;2023-12-04T14:54:36;0.70;99.90
46139;DHT22;32398;49.112;8.598;2023-12-04T14:57:17;0.70;99.90
46139;DHT22;32398;49.112;8.598;2023-12-04T15:00:16;0.70;99.90
46139;DHT22;32398;49.112;8.598;2023-12-04T15:03:28;0.70;99.90
46139;DHT22;32398;49.112;8.598;2023-12-04T15:06:12;0.70;99.90
46139;DHT22;32398;49.112;8.598;2023-12-04T15:09:19;0.70;99.90
46139;DHT22;32398;49.112;8.598;2023-12-04T15:11:59;0.70;99.90
46139;DHT22;32398;49.112;8.598;2023-12-04T15:14:47;0.80;99.90
46139;DHT22;32398;49.112;8.598;2023-12-04T15:17:18;0.80;99.90
46139;DHT22;32398;49.112;8.598;2023-12-04T15:19:56;0.80;99.90
46139;DHT22;32398;49.112;8.598;2023-12-04T15:22:46;0.80;99.90
46139;DHT22;32398;49.112;8.598;2023-12-04T15:25:13;0.80;99.90
46139;DHT22;32398;49.112;8.598;2023-12-04T15:27:38;0.80;99.90
46139;DHT22;32398;49.112;8.598;2023-12-04T15:30:05;0.80;99.90
46139;DHT22;32398;49.112;8.598;2023-12-04T15:32:33;0.80;99.90
46139;DHT22;32398;49.112;8.598;2023-12-04T15:35:01;0.80;99.90
46139;DHT22;32398;49.112;8.598;2023-12-04T15:37:27;0.80;99.90